Terminal Aerodrome Forecast
Issued by NWS

Home | Current Version | Previous Version | Text Only | Print | Product List | Glossary On
Versions: 1 2 3 4 5 6 7 8 9 10 11 12 13 14 15 16 17
991
FTUS43 KMQT 031727
TAFSAW
TAF
KSAW 031727Z 0318/0418 VRB03KT P6SM OVC035
     FM040700 17003KT P6SM BKN030
     FM040900 18003KT P6SM BKN015
     FM041300 19005KT P6SM OVC020
     FM041600 19008KT P6SM OVC035=

USA.gov is the U.S. government's official web portal to all federal, state and local government web resources and services.